createdAt,value
2019-02-16T16:05:18.092Z,20.94
2019-02-16T16:06:23.921Z,20.51
2019-02-16T16:07:23.115Z,19.37
2019-02-16T16:08:23.335Z,18.45
2019-02-16T16:09:23.565Z,17.68
2019-02-16T16:10:24.070Z,16.85
2019-02-16T16:11:26.921Z,15.94
2019-02-16T16:12:25.292Z,15.32
2019-02-16T16:13:25.521Z,14.94
2019-02-16T16:14:25.614Z,14.33
2019-02-16T16:15:25.861Z,14.12
2019-02-16T16:16:26.578Z,13.89
2019-02-16T16:17:26.167Z,13.73
2019-02-16T16:18:26.395Z,13.45
2019-02-16T16:19:26.543Z,13.20
2019-02-16T16:20:26.684Z,13.11
2019-02-16T16:21:26.835Z,12.83
2019-02-16T16:22:26.977Z,12.70
2019-02-16T16:23:27.169Z,12.50
2019-02-16T16:24:27.430Z,12.35
2019-02-16T16:25:28.236Z,12.32
2019-02-16T16:26:28.261Z,12.32
2019-02-16T16:27:28.293Z,12.09
2019-02-16T16:28:28.580Z,11.99
2019-02-16T16:29:28.047Z,11.82
2019-02-16T16:30:28.189Z,11.79
2019-02-16T16:31:28.366Z,11.73
2019-02-16T16:32:28.511Z,11.67
2019-02-16T16:33:28.690Z,11.62
2019-02-16T16:34:29.040Z,11.55
2019-02-16T16:35:29.011Z,11.47
2019-02-16T16:36:29.254Z,11.21
2019-02-16T16:37:29.441Z,11.06
2019-02-16T16:38:29.607Z,10.92
2019-02-16T16:39:29.782Z,10.73
2019-02-16T16:40:30.843Z,10.64
2019-02-16T16:41:30.112Z,10.52
2019-02-16T16:42:30.339Z,10.17
2019-02-16T16:43:30.506Z,10.11
2019-02-16T16:44:30.725Z,9.86
2019-02-16T16:45:30.951Z,9.71
2019-02-16T16:46:31.188Z,9.61
2019-02-16T16:47:31.359Z,9.50
2019-02-16T16:48:31.497Z,9.47
2019-02-16T16:49:31.694Z,9.35
2019-02-16T16:50:31.853Z,9.24
2019-02-16T16:51:32.031Z,9.11
2019-02-16T16:52:32.249Z,9.05
2019-02-16T16:53:32.450Z,9.01
2019-02-16T16:54:34.640Z,8.95
2019-02-16T16:55:32.816Z,8.92
2019-02-16T16:56:32.987Z,8.77
2019-02-16T16:57:33.152Z,8.70
2019-02-16T16:58:33.356Z,8.76
2019-02-16T16:59:35.270Z,8.65
2019-02-16T17:00:33.662Z,8.50
2019-02-16T17:01:33.900Z,8.58
2019-02-16T17:02:34.057Z,8.56
2019-02-16T17:20:38.946Z,6.58
2019-02-16T17:21:33.323Z,6.51
2019-02-16T17:22:33.480Z,6.40
2019-02-16T17:23:34.856Z,6.33
2019-02-16T17:25:14.574Z,6.18
2019-02-16T17:25:57.284Z,6.04
2019-02-16T17:26:40.382Z,6.08
2019-02-16T17:27:35.500Z,5.91
2019-02-16T17:28:35.706Z,5.91
2019-02-16T17:29:36.930Z,5.85
2019-02-16T17:30:36.319Z,5.74
2019-02-16T17:31:36.837Z,5.68
2019-02-16T17:32:36.494Z,5.48
2019-02-16T17:33:36.619Z,5.36
2019-02-16T17:34:36.799Z,5.35
2019-02-16T17:35:36.950Z,5.20
2019-02-16T17:36:37.109Z,5.24
2019-02-16T17:37:37.279Z,5.13
2019-02-16T17:38:37.404Z,5.06
2019-02-16T17:39:37.664Z,4.92
2019-02-16T17:40:37.773Z,4.85
2019-02-16T17:41:37.881Z,4.85
2019-02-16T17:42:38.006Z,4.75
2019-02-16T17:43:38.153Z,4.55
2019-02-16T17:44:38.259Z,4.60
2019-02-16T17:45:38.566Z,4.59
2019-02-16T17:46:39.254Z,4.55
2019-02-16T17:47:38.869Z,4.41
2019-02-16T17:48:39.855Z,4.51
2019-02-16T17:49:39.294Z,4.44
2019-02-16T17:50:39.515Z,4.45
2019-02-16T17:51:39.649Z,4.59
2019-02-16T17:52:39.852Z,4.54
2019-02-16T17:53:40.013Z,4.37
2019-02-16T17:54:40.165Z,4.34
2019-02-16T17:55:40.406Z,4.32
2019-02-16T17:56:46.631Z,4.22
2019-02-16T17:57:42.681Z,4.30
2019-02-16T17:58:40.866Z,4.26
2019-02-16T17:59:41.055Z,4.08
2019-02-16T18:30:29.718Z,2.97
2019-02-16T18:31:31.055Z,2.85
2019-02-16T18:32:31.852Z,2.81
2019-02-16T18:33:32.359Z,2.71
2019-02-16T18:34:31.663Z,2.72
2019-02-16T18:35:32.816Z,2.72
2019-02-16T18:36:32.121Z,2.63
2019-02-16T18:37:32.749Z,2.61
2019-02-16T18:38:33.229Z,2.49
2019-02-16T18:39:32.619Z,2.42
2019-02-16T18:40:32.703Z,2.27
2019-02-16T18:41:33.040Z,2.31
2019-02-16T18:42:33.171Z,2.16
2019-02-16T18:43:33.378Z,2.18
2019-02-16T18:44:33.606Z,2.21
2019-02-16T18:45:33.774Z,2.16
2019-02-16T18:46:33.923Z,2.06
2019-02-16T18:47:34.089Z,2.14
2019-02-16T18:48:34.309Z,1.99
2019-02-16T18:49:34.797Z,2.06
2019-02-16T18:50:34.595Z,1.95
2019-02-16T18:51:35.077Z,1.98
2019-02-16T18:52:35.289Z,2.06
2019-02-16T18:53:36.099Z,2.05
2019-02-16T18:54:35.315Z,2.07
2019-02-16T18:55:35.516Z,2.02
2019-02-16T18:56:36.544Z,2.05
2019-02-16T18:57:35.892Z,2.06
2019-02-16T18:58:36.023Z,1.98
2019-02-16T18:59:36.262Z,1.93
2019-02-16T20:00:30.794Z,-0.04
2019-02-16T20:01:32.012Z,-0.08
2019-02-16T20:02:32.261Z,-0.11
2019-02-16T20:03:32.431Z,-0.11
2019-02-16T20:04:32.547Z,-0.28
2019-02-16T20:05:32.784Z,-0.16
2019-02-16T20:06:32.883Z,-0.25
2019-02-16T20:07:33.100Z,-0.15
2019-02-16T20:08:33.361Z,-0.04
2019-02-16T20:09:34.324Z,-0.04
2019-02-16T20:10:33.573Z,0.02
2019-02-16T20:11:33.730Z,0.13
2019-02-16T20:12:33.852Z,0.20
2019-02-16T20:13:34.060Z,0.18
2019-02-16T20:14:34.189Z,0.14
2019-02-16T20:15:34.505Z,0.14
2019-02-16T20:16:34.707Z,0.10
2019-02-16T20:17:34.971Z,0.14
2019-02-16T20:18:35.093Z,0.11
2019-02-16T20:19:35.153Z,-0.03
2019-02-16T20:20:35.461Z,-0.05
2019-02-16T20:21:35.525Z,0.02
2019-02-16T20:22:35.708Z,0.17
2019-02-16T20:23:35.784Z,0.23
2019-02-16T20:24:35.900Z,0.32
2019-02-16T20:25:36.061Z,0.36
2019-02-16T20:26:36.186Z,0.29
2019-02-16T20:27:37.662Z,0.29
2019-02-16T20:28:37.569Z,0.21
2019-02-16T20:29:36.774Z,0.02
2019-02-16T20:30:37.923Z,0.08
2019-02-16T20:31:37.037Z,-0.01
2019-02-16T20:32:37.138Z,-0.11
2019-02-16T20:33:37.364Z,-0.21
2019-02-16T20:34:37.557Z,-0.16
2019-02-16T20:35:37.776Z,-0.05
2019-02-16T20:36:38.055Z,-0.07
2019-02-16T20:37:39.421Z,-0.05
2019-02-16T20:38:39.436Z,-0.23
2019-02-16T20:39:38.563Z,-0.29
2019-02-16T20:40:38.730Z,-0.34
2019-02-16T20:41:38.810Z,-0.46
2019-02-16T20:42:39.040Z,-0.43
2019-02-16T20:43:39.350Z,-0.49
2019-02-16T20:44:39.502Z,-0.44
2019-02-16T20:45:39.702Z,-0.49
2019-02-16T20:46:39.861Z,-0.42
2019-02-16T20:47:40.066Z,-0.40
2019-02-16T20:48:40.381Z,-0.47
2019-02-16T20:49:40.387Z,-0.37
2019-02-16T20:50:40.629Z,-0.49
2019-02-16T20:51:40.881Z,-0.37
2019-02-16T20:52:41.008Z,-0.43
2019-02-16T20:53:41.149Z,-0.47
2019-02-16T20:54:41.315Z,-0.57
2019-02-16T20:55:41.659Z,-0.57
2019-02-16T20:56:41.543Z,-0.60
2019-02-16T20:57:47.719Z,-0.58
2019-02-16T20:58:43.930Z,-0.75
2019-02-16T20:59:43.239Z,-0.79
2019-02-16T21:15:32.876Z,-1.04
2019-02-16T21:16:34.163Z,-1.12
2019-02-16T21:17:34.336Z,-1.09
2019-02-16T21:18:34.508Z,-1.12
2019-02-16T21:19:34.680Z,-1.16
2019-02-16T21:20:34.866Z,-1.20
2019-02-16T21:21:35.037Z,-1.19
2019-02-16T21:22:35.236Z,-1.12
2019-02-16T21:23:36.053Z,-1.20
2019-02-16T21:24:35.594Z,-1.23
2019-02-16T21:25:35.746Z,-1.33
2019-02-16T21:26:37.981Z,-1.45
2019-02-16T21:27:37.130Z,-1.40
2019-02-16T21:28:36.357Z,-1.41
2019-02-16T21:29:36.552Z,-1.40
2019-02-16T21:30:36.815Z,-1.38
2019-02-16T21:31:36.855Z,-1.41
2019-02-16T21:32:37.140Z,-1.40
2019-02-16T21:33:37.261Z,-1.38
2019-02-16T21:34:37.258Z,-1.23
2019-02-16T21:35:37.383Z,-1.31
2019-02-16T21:36:37.729Z,-1.25
2019-02-16T21:37:37.809Z,-1.15
2019-02-16T21:38:37.961Z,-1.17
2019-02-16T21:39:38.211Z,-1.12
2019-02-16T21:40:38.324Z,-1.10
2019-02-16T21:41:38.498Z,-1.16
2019-02-16T21:42:38.633Z,-1.12
2019-02-16T21:43:38.879Z,-1.12
2019-02-16T21:44:39.065Z,-1.15
2019-02-16T21:45:39.182Z,-1.13
2019-02-16T21:46:39.404Z,-1.07
2019-02-16T21:47:39.518Z,-1.04
2019-02-16T21:48:39.630Z,-1.09
2019-02-16T21:49:39.797Z,-1.09
2019-02-16T21:50:39.981Z,-1.22
2019-02-16T21:51:40.208Z,-1.15
2019-02-16T21:52:41.063Z,-1.35
2019-02-16T21:53:40.616Z,-1.23
2019-02-16T21:54:40.784Z,-1.31
2019-02-16T21:55:40.978Z,-1.38
2019-02-16T21:56:41.195Z,-1.45
2019-02-16T21:57:41.308Z,-1.41
2019-02-16T21:58:41.553Z,-1.51
2019-02-16T21:59:41.794Z,-1.48
